EmailTwitter


Observations de surface / Québec / LFRH

Régions: Québec | Canada | États-Unis | Europe | France | UK | Ailleurs
Station
Affichage
Infos & localisation pour LFRH | Aide pour décoder les METARs

Observations prises le 2017-09-21 à 10H30 UTC à LORIENT/LANN BIH, FR (LFRH)

Etat du ciel: couvert.

Obstacle(s) à la visibilité: faible pluie.

Température: 16.0 Celsius

Point de rosée: 15.0 Celsius

Humidité relative: 94%

Indice Humidex: 20.

Vents: Ouest-sud-ouest à 9 km/h ou 5 noeuds.

Pression au niveau moyen de la mer: 101.60 kilopascals.

Visibilité horizontale: 6.21 milles terrestres ou 9.94 kilomètres.

Hauteur du plafond: 122 mètres ( 400 pieds ).

Observation METAR:

LFRH 211030Z AUTO 25005KT 9999 -RA BKN004 OVC033 16/15 Q1016 TEMPO 3000 DZ

BECMG 32010KT SCT015 SCT025=